createdAt,value
2023-01-22T00:01:28.894Z,101496.16
2023-01-22T00:03:58.186Z,101496.06
2023-01-22T00:06:27.623Z,101486.16
2023-01-22T00:08:56.840Z,101478.50
2023-01-22T00:11:26.171Z,101480.44
2023-01-22T00:13:58.002Z,101484.09
2023-01-22T00:16:27.258Z,101492.03
2023-01-22T00:18:56.492Z,101481.72
2023-01-22T00:21:27.763Z,101479.03
2023-01-22T00:23:57.046Z,101479.13
2023-01-22T00:26:26.277Z,101476.63
2023-01-22T00:28:58.123Z,101480.03
2023-01-22T00:31:27.468Z,101481.72
2023-01-22T00:33:56.831Z,101477.97
2023-01-22T00:36:26.093Z,101472.97
2023-01-22T00:38:55.349Z,101453.94
2023-01-22T00:41:24.607Z,101458.94
2023-01-22T00:43:53.874Z,101466.41
2023-01-22T00:46:25.833Z,101476.72
2023-01-22T00:48:55.135Z,101469.84
2023-01-22T00:51:24.729Z,101469.84
2023-01-22T00:53:54.068Z,101472.88
2023-01-22T00:56:23.372Z,101468.06
2023-01-22T00:58:52.619Z,101464.94
2023-01-22T01:01:21.915Z,101469.75
2023-01-22T01:03:53.797Z,101471.50
2023-01-22T01:06:23.481Z,101474.31
2023-01-22T01:08:52.984Z,101480.97
2023-01-22T01:11:23.986Z,101474.53
2023-01-22T01:13:53.411Z,101482.63
2023-01-22T01:16:23.715Z,101472.22
2023-01-22T01:18:55.709Z,101465.88
2023-01-22T01:21:24.951Z,101471.31
2023-01-22T01:23:54.215Z,101478.16
2023-01-22T01:26:23.484Z,101460.47
2023-01-22T01:28:52.778Z,101467.00
2023-01-22T01:31:22.509Z,101466.72
2023-01-22T01:33:51.840Z,101472.13
2023-01-22T01:36:46.431Z,101467.88
2023-01-22T01:39:13.445Z,101486.25
2023-01-22T01:41:42.739Z,101477.81
2023-01-22T01:44:12.726Z,101480.72
2023-01-22T01:46:43.255Z,101485.59
2023-01-22T01:49:14.331Z,101475.97
2023-01-22T01:51:46.248Z,101475.97
2023-01-22T01:54:15.693Z,101475.59
2023-01-22T01:56:46.486Z,101476.16
2023-01-22T01:59:16.369Z,101474.50
2023-01-22T02:01:45.693Z,101473.38
2023-01-22T02:04:14.958Z,101463.06
2023-01-22T02:06:46.841Z,101466.47
2023-01-22T02:09:16.183Z,101470.38
2023-01-22T02:11:45.413Z,101467.94
2023-01-22T02:14:15.055Z,101469.56
2023-01-22T02:16:44.346Z,101469.84
2023-01-22T02:19:13.625Z,101473.50
2023-01-22T02:21:45.817Z,101467.47
2023-01-22T02:24:15.564Z,101475.75
2023-01-22T02:26:45.143Z,101470.91
2023-01-22T02:29:14.825Z,101465.03
2023-01-22T02:31:44.718Z,101468.13
2023-01-22T02:34:14.022Z,101467.69
2023-01-22T02:36:45.918Z,101476.25
2023-01-22T02:39:15.359Z,101476.56
2023-01-22T02:41:44.628Z,101464.81
2023-01-22T02:44:14.003Z,101473.28
2023-01-22T02:46:43.257Z,101468.13
2023-01-22T02:49:12.518Z,101476.84
2023-01-22T02:51:41.764Z,101464.94
2023-01-22T02:54:13.697Z,101469.75
2023-01-22T02:56:42.941Z,101463.16
2023-01-22T02:59:12.192Z,101462.13
2023-01-22T03:01:41.508Z,101452.66
2023-01-22T03:04:13.425Z,101457.75
2023-01-22T03:06:43.153Z,101456.00
2023-01-22T03:09:15.523Z,101455.78
2023-01-22T03:11:45.058Z,101444.84
2023-01-22T03:14:26.798Z,101451.50
2023-01-22T03:17:08.574Z,101442.53
2023-01-22T03:19:50.289Z,101451.50
2023-01-22T03:22:19.852Z,101447.47
2023-01-22T03:24:53.064Z,101448.28
2023-01-22T03:27:22.721Z,101453.72
2023-01-22T03:29:52.043Z,101450.78
2023-01-22T03:32:21.320Z,101449.19
2023-01-22T03:34:50.736Z,101450.84
2023-01-22T03:37:19.995Z,101448.34
2023-01-22T03:39:51.847Z,101450.78
2023-01-22T03:42:21.137Z,101462.59
2023-01-22T03:44:50.402Z,101469.00
2023-01-22T03:47:20.152Z,101463.59
2023-01-22T03:49:49.452Z,101469.63
2023-01-22T03:52:18.706Z,101472.56
2023-01-22T03:54:47.947Z,101469.56
2023-01-22T03:57:19.830Z,101461.22
2023-01-22T03:59:49.081Z,101458.78
2023-01-22T04:02:18.360Z,101462.31
2023-01-22T04:04:47.963Z,101458.53
2023-01-22T04:07:17.264Z,101460.16
2023-01-22T04:09:46.503Z,101471.50
2023-01-22T04:12:15.772Z,101470.00
2023-01-22T04:14:47.619Z,101469.00
2023-01-22T04:17:16.874Z,101478.06
2023-01-22T04:19:46.103Z,101473.22
2023-01-22T04:22:15.396Z,101480.16
2023-01-22T04:24:44.621Z,101476.75
2023-01-22T04:27:13.922Z,101471.75
2023-01-22T04:29:43.182Z,101462.34
2023-01-22T04:32:15.033Z,101464.00
2023-01-22T04:34:44.343Z,101459.25
2023-01-22T04:37:13.949Z,101462.69
2023-01-22T04:39:43.209Z,101458.81
2023-01-22T04:42:13.122Z,101465.50
2023-01-22T04:44:42.377Z,101468.06
2023-01-22T04:47:11.668Z,101466.50
2023-01-22T04:49:43.736Z,101453.50
2023-01-22T04:52:13.014Z,101458.81
2023-01-22T04:54:42.271Z,101463.09
2023-01-22T04:57:11.546Z,101467.47
2023-01-22T04:59:40.782Z,101469.66
2023-01-22T05:02:10.099Z,101466.25
2023-01-22T05:04:39.347Z,101470.91
2023-01-22T05:07:11.209Z,101464.44
2023-01-22T05:09:40.451Z,101472.59
2023-01-22T05:12:09.845Z,101481.34
2023-01-22T05:14:39.085Z,101483.19
2023-01-22T05:17:08.383Z,101482.88
2023-01-22T05:19:38.116Z,101478.53
2023-01-22T05:22:07.429Z,101478.00
2023-01-22T05:24:39.349Z,101482.59
2023-01-22T05:27:08.632Z,101481.88
2023-01-22T05:29:37.939Z,101485.94
2023-01-22T05:32:07.544Z,101474.59
2023-01-22T05:34:36.818Z,101485.28
2023-01-22T05:37:06.089Z,101482.97
2023-01-22T05:39:35.332Z,101485.25
2023-01-22T05:42:07.320Z,101497.72
2023-01-22T05:44:36.596Z,101490.72
2023-01-22T05:47:05.900Z,101487.38
2023-01-22T05:49:35.166Z,101492.63
2023-01-22T05:52:04.531Z,101496.56
2023-01-22T05:54:33.817Z,101492.91
2023-01-22T05:57:03.204Z,101492.50
2023-01-22T05:59:35.150Z,101480.34
2023-01-22T06:02:04.449Z,101481.44
2023-01-22T06:04:33.759Z,101489.56
2023-01-22T06:07:03.098Z,101490.97
2023-01-22T06:09:32.403Z,101488.75
2023-01-22T06:12:01.691Z,101492.41
2023-01-22T06:14:31.014Z,101497.72
2023-01-22T06:17:03.009Z,101505.44
2023-01-22T06:19:32.275Z,101508.25
2023-01-22T06:22:01.851Z,101508.19
2023-01-22T06:24:31.141Z,101504.00
2023-01-22T06:27:00.473Z,101493.53
2023-01-22T06:29:29.801Z,101496.91
2023-01-22T06:31:59.091Z,101505.97
2023-01-22T06:34:31.023Z,101504.47
2023-01-22T06:37:00.291Z,101494.56
2023-01-22T06:39:29.545Z,101498.84
2023-01-22T06:41:58.806Z,101504.44
2023-01-22T06:44:28.080Z,101492.47
2023-01-22T06:46:57.390Z,101503.09
2023-01-22T06:49:26.661Z,101509.03
2023-01-22T06:51:58.593Z,101512.59
2023-01-22T06:54:27.917Z,101519.91
2023-01-22T06:56:57.241Z,101517.59
2023-01-22T06:59:26.600Z,101517.41
2023-01-22T07:01:55.947Z,101527.41
2023-01-22T07:04:25.236Z,101529.06
2023-01-22T07:06:54.536Z,101531.47
2023-01-22T07:09:26.546Z,101537.63
2023-01-22T07:11:57.510Z,101538.06
2023-01-22T07:14:36.543Z,101530.13
2023-01-22T07:17:06.600Z,101532.75
2023-01-22T07:19:35.943Z,101547.97
2023-01-22T07:22:05.253Z,101550.19
2023-01-22T07:24:37.219Z,101551.75
2023-01-22T07:27:06.672Z,101550.31
2023-01-22T07:29:35.978Z,101559.94
2023-01-22T07:32:05.271Z,101561.88
2023-01-22T07:34:34.573Z,101558.97
2023-01-22T07:37:04.396Z,101567.41
2023-01-22T07:39:33.673Z,101568.03
2023-01-22T07:42:05.657Z,101571.16
2023-01-22T07:44:37.078Z,101576.25
2023-01-22T07:47:06.411Z,101581.28
2023-01-22T07:49:35.722Z,101577.06
2023-01-22T07:52:05.000Z,101585.81
2023-01-22T07:54:36.601Z,101573.19
2023-01-22T07:57:08.790Z,101576.41
2023-01-22T07:59:38.024Z,101587.00
2023-01-22T08:02:07.340Z,101585.34
2023-01-22T08:04:36.627Z,101586.91
2023-01-22T08:07:05.962Z,101583.75
2023-01-22T08:09:35.383Z,101590.56
2023-01-22T08:12:04.745Z,101602.25
2023-01-22T08:14:36.613Z,101594.75
2023-01-22T08:17:05.950Z,101593.59
2023-01-22T08:19:35.222Z,101601.13
2023-01-22T08:22:04.490Z,101598.91
2023-01-22T08:24:34.452Z,101608.50
2023-01-22T08:27:03.745Z,101610.19
2023-01-22T08:29:33.078Z,101606.09
2023-01-22T08:32:05.014Z,101606.81
2023-01-22T08:34:34.352Z,101612.78
2023-01-22T08:37:03.660Z,101608.94
2023-01-22T08:39:32.922Z,101611.97
2023-01-22T08:42:02.259Z,101619.28
2023-01-22T08:44:31.529Z,101618.38
2023-01-22T08:47:00.873Z,101624.41
2023-01-22T08:49:33.200Z,101626.06
2023-01-22T08:52:02.493Z,101621.78
2023-01-22T08:54:31.790Z,101631.16
2023-01-22T08:57:01.074Z,101637.41
2023-01-22T08:59:31.240Z,101633.75
2023-01-22T09:02:00.770Z,101632.16
2023-01-22T09:04:32.693Z,101635.38
2023-01-22T09:07:01.975Z,101641.13
2023-01-22T09:09:31.196Z,101633.31
2023-01-22T09:12:00.458Z,101633.41
2023-01-22T09:14:29.685Z,101635.09
2023-01-22T09:16:58.915Z,101630.63
2023-01-22T09:19:28.155Z,101631.69
2023-01-22T09:22:06.271Z,101633.25
2023-01-22T09:24:35.720Z,101646.69
2023-01-22T09:27:05.455Z,101643.16
2023-01-22T09:29:34.725Z,101641.06
2023-01-22T09:32:04.007Z,101634.91
2023-01-22T09:34:33.452Z,101639.13
2023-01-22T09:37:07.897Z,101637.56
2023-01-22T09:39:37.134Z,101638.22
2023-01-22T09:42:06.356Z,101639.13
2023-01-22T09:44:37.713Z,101635.91
2023-01-22T09:47:07.396Z,101640.59
2023-01-22T09:49:38.001Z,101640.13
2023-01-22T09:52:09.940Z,101639.50
2023-01-22T09:54:39.230Z,101648.16
2023-01-22T09:57:09.554Z,101645.81
2023-01-22T09:59:48.502Z,101649.22
2023-01-22T10:02:22.697Z,101651.84
2023-01-22T10:04:53.117Z,101653.84
2023-01-22T10:07:26.487Z,101653.19
2023-01-22T10:09:56.332Z,67604.97
2023-01-22T10:12:26.060Z,67604.97
2023-01-22T10:14:55.311Z,67604.97
2023-01-22T10:17:25.414Z,67604.97
2023-01-22T10:19:55.356Z,67604.97
2023-01-22T10:22:27.652Z,67604.97
2023-01-22T10:24:57.791Z,67604.97
2023-01-22T10:27:28.213Z,67604.97
2023-01-22T10:30:01.232Z,67604.97
2023-01-22T10:32:30.832Z,67604.97
2023-01-22T10:35:01.291Z,67604.97
2023-01-22T10:37:33.144Z,67604.97
2023-01-22T10:40:02.476Z,67604.97
2023-01-22T10:42:31.914Z,67604.97
2023-01-22T10:45:10.739Z,67604.97
2023-01-22T10:47:39.966Z,67604.97
2023-01-22T10:50:09.787Z,67604.97
2023-01-22T10:52:42.366Z,67604.97
2023-01-22T10:55:18.967Z,67604.97
2023-01-22T10:57:48.273Z,67604.97
2023-01-22T11:00:23.560Z,67604.97
2023-01-22T11:02:52.987Z,67604.97
2023-01-22T11:05:22.666Z,67604.97
2023-01-22T11:07:54.845Z,67604.97
2023-01-22T11:10:25.030Z,67604.97
2023-01-22T11:12:55.173Z,67604.97
2023-01-22T11:15:25.772Z,67604.97
2023-01-22T11:17:55.529Z,67604.97
2023-01-22T11:20:26.140Z,67604.97
2023-01-22T11:23:00.796Z,67604.97
2023-01-22T11:25:30.427Z,67604.97
2023-01-22T11:28:02.649Z,67604.97
2023-01-22T11:30:37.552Z,67604.97
2023-01-22T11:33:08.182Z,67604.97
2023-01-22T11:35:38.260Z,67604.97
2023-01-22T11:38:21.745Z,67604.97
2023-01-22T11:41:05.898Z,67604.97
2023-01-22T11:43:39.173Z,67604.97
2023-01-22T11:46:12.249Z,67604.97
2023-01-22T11:48:47.042Z,67604.97
2023-01-22T11:51:19.663Z,67604.97
2023-01-22T11:53:58.161Z,67604.97
2023-01-22T11:56:32.289Z,67604.97
2023-01-22T11:59:02.602Z,67604.97
2023-01-22T12:01:34.792Z,67604.97
2023-01-22T12:04:09.252Z,67604.97
2023-01-22T12:06:49.393Z,67604.97
2023-01-22T12:09:22.429Z,67604.97
2023-01-22T12:12:06.648Z,67604.97
2023-01-22T12:14:38.894Z,67604.97
2023-01-22T12:17:10.877Z,67604.97
2023-01-22T12:19:55.203Z,67604.97
2023-01-22T12:22:27.843Z,67604.97
2023-01-22T12:25:00.657Z,67604.97
2023-01-22T12:27:31.347Z,67604.97
2023-01-22T12:30:01.743Z,67604.97
2023-01-22T12:32:31.898Z,67604.97
2023-01-22T12:35:01.442Z,67604.97
2023-01-22T12:37:31.681Z,67604.97
2023-01-22T12:40:08.232Z,67604.97
2023-01-22T12:42:38.833Z,67604.97
2023-01-22T12:45:09.443Z,67604.97
2023-01-22T12:47:40.497Z,67604.97
2023-01-22T12:50:18.764Z,67604.97
2023-01-22T12:52:48.182Z,67604.97
2023-01-22T12:55:35.001Z,67604.97
2023-01-22T12:58:04.338Z,67604.97
2023-01-22T13:00:35.049Z,67604.97
2023-01-22T13:03:05.185Z,67604.97
2023-01-22T13:05:39.601Z,67604.97
2023-01-22T13:08:09.456Z,67604.97
2023-01-22T13:10:41.381Z,67604.97
2023-01-22T13:13:18.844Z,67604.97
2023-01-22T13:15:53.072Z,67604.97
2023-01-22T13:18:22.811Z,67604.97
2023-01-22T13:20:52.963Z,67604.97
2023-01-22T13:23:22.222Z,67604.97
2023-01-22T13:25:57.677Z,67604.97
2023-01-22T13:28:27.073Z,67604.97
2023-01-22T13:31:00.011Z,67604.97
2023-01-22T13:33:29.347Z,67604.97
2023-01-22T13:35:58.839Z,67604.97
2023-01-22T13:38:28.580Z,67604.97
2023-01-22T13:41:01.543Z,67604.97
2023-01-22T13:43:30.807Z,67604.97
2023-01-22T13:46:01.043Z,67604.97
2023-01-22T13:48:30.287Z,67604.97
2023-01-22T13:51:00.064Z,67604.97
2023-01-22T13:53:31.195Z,67604.97
2023-01-22T13:56:03.227Z,67604.97
2023-01-22T13:58:47.120Z,67604.97
2023-01-22T14:01:29.423Z,67604.97
2023-01-22T14:04:02.195Z,67604.97
2023-01-22T14:06:31.666Z,67604.97
2023-01-22T14:09:00.941Z,67604.97
2023-01-22T14:11:42.185Z,67604.97
2023-01-22T14:14:17.641Z,67604.97
2023-01-22T14:16:47.053Z,67604.97
2023-01-22T14:19:16.351Z,67604.97
2023-01-22T14:21:45.741Z,67604.97
2023-01-22T14:24:14.976Z,67604.97
2023-01-22T14:26:46.831Z,67604.97
2023-01-22T14:29:16.065Z,67604.97
2023-01-22T14:31:45.337Z,67604.97
2023-01-22T14:34:14.694Z,67604.97
2023-01-22T14:36:45.025Z,67604.97
2023-01-22T14:39:14.247Z,67604.97
2023-01-22T14:41:43.495Z,67604.97
2023-01-22T14:44:15.921Z,67604.97
2023-01-22T14:46:45.209Z,67604.97
2023-01-22T14:49:14.449Z,67604.97
2023-01-22T14:51:43.931Z,67604.97
2023-01-22T14:54:13.150Z,67604.97
2023-01-22T14:56:42.419Z,67604.97
2023-01-22T14:59:11.657Z,67604.97
2023-01-22T15:01:43.566Z,67604.97
2023-01-22T15:04:12.813Z,67604.97
2023-01-22T15:06:42.076Z,67604.97
2023-01-22T15:09:11.354Z,67604.97
2023-01-22T15:11:40.603Z,67604.97
2023-01-22T15:14:09.852Z,67604.97
2023-01-22T15:16:40.319Z,67604.97
2023-01-22T15:19:12.242Z,67604.97
2023-01-22T15:21:41.512Z,67604.97
2023-01-22T15:24:11.355Z,67604.97
2023-01-22T15:26:40.818Z,67604.97
2023-01-22T15:29:12.082Z,67604.97
2023-01-22T15:31:41.485Z,67604.97
2023-01-22T15:34:13.466Z,67604.97
2023-01-22T15:36:42.701Z,67604.97
2023-01-22T15:39:12.033Z,67604.97
2023-01-22T15:41:41.381Z,67604.97
2023-01-22T15:44:10.820Z,67604.97
2023-01-22T15:46:40.731Z,67604.97
2023-01-22T15:49:12.390Z,67604.97
2023-01-22T15:51:44.433Z,67604.97
2023-01-22T15:54:16.499Z,67604.97
2023-01-22T15:56:45.877Z,67604.97
2023-01-22T15:59:15.157Z,67604.97
2023-01-22T16:01:44.453Z,67604.97
2023-01-22T16:04:13.800Z,67604.97
2023-01-22T16:06:45.788Z,67604.97
2023-01-22T16:09:15.160Z,67604.97
2023-01-22T16:11:44.505Z,67604.97
2023-01-22T16:14:13.796Z,67604.97
2023-01-22T16:16:43.120Z,67604.97
2023-01-22T16:19:13.375Z,67604.97
2023-01-22T16:21:47.183Z,67604.97
2023-01-22T16:24:16.512Z,67604.97
2023-01-22T16:26:45.956Z,67604.97
2023-01-22T16:29:15.233Z,67604.97
2023-01-22T16:31:44.541Z,67604.97
2023-01-22T16:34:14.531Z,67604.97
2023-01-22T16:36:46.468Z,67604.97
2023-01-22T16:39:18.650Z,67604.97
2023-01-22T16:41:48.821Z,67604.97
2023-01-22T16:44:18.889Z,67604.97
2023-01-22T16:46:49.468Z,67604.97
2023-01-22T16:49:19.317Z,67604.97
2023-01-22T16:51:51.609Z,67604.97
2023-01-22T16:54:22.427Z,67604.97
2023-01-22T16:56:51.797Z,67604.97
2023-01-22T16:59:21.552Z,67604.97
2023-01-22T17:01:50.907Z,67604.97
2023-01-22T17:04:20.184Z,67604.97
2023-01-22T17:06:52.393Z,67604.97
2023-01-22T17:09:22.105Z,67604.97
2023-01-22T17:11:51.893Z,67604.97
2023-01-22T17:14:21.854Z,67604.97
2023-01-22T17:16:51.186Z,67604.97
2023-01-22T17:19:20.556Z,67604.97
2023-01-22T17:21:54.650Z,67604.97
2023-01-22T17:24:24.024Z,67604.97
2023-01-22T17:26:53.450Z,67604.97
2023-01-22T17:29:22.825Z,67604.97
2023-01-22T17:31:52.542Z,67604.97
2023-01-22T17:34:22.555Z,67604.97
2023-01-22T17:36:54.425Z,67604.97
2023-01-22T17:39:24.350Z,67604.97
2023-01-22T17:41:53.628Z,67604.97
2023-01-22T17:44:22.925Z,67604.97
2023-01-22T17:46:55.226Z,67604.97
2023-01-22T17:49:24.533Z,67604.97
2023-01-22T17:51:56.528Z,67604.97
2023-01-22T17:54:25.864Z,67604.97
2023-01-22T17:56:55.302Z,67604.97
2023-01-22T17:59:24.908Z,67604.97
2023-01-22T18:01:54.338Z,67604.97
2023-01-22T18:04:24.044Z,67604.97
2023-01-22T18:06:56.639Z,67604.97
2023-01-22T18:09:25.974Z,67604.97
2023-01-22T18:11:57.909Z,67604.97
2023-01-22T18:14:30.985Z,67604.97
2023-01-22T18:17:00.287Z,67604.97
2023-01-22T18:19:29.692Z,67604.97
2023-01-22T18:22:01.582Z,67604.97
2023-01-22T18:24:32.437Z,67604.97
2023-01-22T18:27:02.479Z,67604.97
2023-01-22T18:29:31.751Z,67604.97
2023-01-22T18:32:01.237Z,67604.97
2023-01-22T18:34:30.505Z,67604.97
2023-01-22T18:37:02.365Z,67604.97
2023-01-22T18:39:31.670Z,67604.97
2023-01-22T18:42:00.970Z,67604.97
2023-01-22T18:44:30.254Z,67604.97
2023-01-22T18:47:01.797Z,67604.97
2023-01-22T18:49:32.324Z,67604.97
2023-01-22T18:52:05.596Z,67604.97
2023-01-22T18:54:34.853Z,67604.97
2023-01-22T18:57:04.164Z,67604.97
2023-01-22T18:59:33.451Z,67604.97
2023-01-22T19:02:04.447Z,67604.97
2023-01-22T19:04:34.215Z,67604.97
2023-01-22T19:07:06.111Z,67604.97
2023-01-22T19:09:35.802Z,67604.97
2023-01-22T19:12:07.092Z,67604.97
2023-01-22T19:14:36.430Z,67604.97
2023-01-22T19:17:06.978Z,67604.97
2023-01-22T19:19:36.298Z,67604.97
2023-01-22T19:22:08.221Z,67604.97
2023-01-22T19:24:37.515Z,67604.97
2023-01-22T19:27:08.355Z,67604.97
2023-01-22T19:32:38.881Z,67604.97
2023-01-22T19:35:14.897Z,67604.97
2023-01-22T19:37:46.959Z,67604.97
2023-01-22T19:40:16.238Z,67604.97
2023-01-22T19:42:47.044Z,67604.97
2023-01-22T19:48:11.930Z,67604.97
2023-01-22T19:50:41.632Z,67604.97
2023-01-22T19:53:13.579Z,67604.97
2023-01-22T19:55:42.825Z,67604.97
2023-01-22T19:58:12.182Z,67604.97
2023-01-22T20:00:41.726Z,67604.97
2023-01-22T20:03:11.148Z,67604.97
2023-01-22T20:05:41.730Z,67604.97
2023-01-22T20:08:13.939Z,67604.97
2023-01-22T20:10:43.281Z,67604.97
2023-01-22T20:13:12.963Z,67604.97
2023-01-22T20:15:42.282Z,67604.97
2023-01-22T20:18:11.716Z,67604.97
2023-01-22T20:20:40.980Z,67604.97
2023-01-22T20:23:12.972Z,67604.97
2023-01-22T20:25:42.245Z,67604.97
2023-01-22T20:28:13.520Z,67604.97
2023-01-22T20:30:42.866Z,67604.97
2023-01-22T20:33:12.752Z,67604.97
2023-01-22T20:35:43.067Z,67604.97
2023-01-22T20:38:14.934Z,67604.97
2023-01-22T20:40:46.161Z,67604.97
2023-01-22T20:43:19.179Z,67604.97
2023-01-22T20:45:48.610Z,67604.97
2023-01-22T20:48:17.970Z,67604.97
2023-01-22T20:50:47.302Z,67604.97
2023-01-22T20:53:19.932Z,67604.97
2023-01-22T20:55:49.698Z,67604.97
2023-01-22T20:58:19.213Z,67604.97
2023-01-22T21:00:48.564Z,67604.97
2023-01-22T21:03:17.928Z,67604.97
2023-01-22T21:05:47.320Z,67604.97
2023-01-22T21:08:19.315Z,67604.97
2023-01-22T21:10:57.433Z,67604.97
2023-01-22T21:13:26.771Z,67604.97
2023-01-22T21:15:56.277Z,67604.97
2023-01-22T21:18:25.614Z,67604.97
2023-01-22T21:20:54.896Z,67604.97
2023-01-22T21:23:27.372Z,67604.97
2023-01-22T21:25:56.605Z,67604.97
2023-01-22T21:28:25.890Z,67604.97
2023-01-22T21:30:55.463Z,67604.97
2023-01-22T21:33:24.766Z,67604.97
2023-01-22T21:35:54.092Z,67604.97
2023-01-22T21:38:23.373Z,67604.97
2023-01-22T21:40:55.242Z,67604.97
2023-01-22T21:43:36.964Z,67604.97
2023-01-22T21:46:18.779Z,67604.97
2023-01-22T21:48:48.199Z,67604.97
2023-01-22T21:51:17.546Z,67604.97
2023-01-22T21:53:46.837Z,67604.97
2023-01-22T21:56:18.711Z,67604.97
2023-01-22T21:58:48.014Z,67604.97
2023-01-22T22:01:17.942Z,67604.97
2023-01-22T22:03:47.350Z,67604.97
2023-01-22T22:06:16.675Z,67604.97
2023-01-22T22:08:46.034Z,67604.97
2023-01-22T22:11:17.903Z,67604.97
2023-01-22T22:13:47.163Z,67604.97
2023-01-22T22:16:16.469Z,67604.97
2023-01-22T22:18:45.755Z,67604.97
2023-01-22T22:21:15.072Z,67604.97
2023-01-22T22:23:44.400Z,67604.97
2023-01-22T22:26:13.755Z,67604.97
2023-01-22T22:28:45.649Z,67604.97
2023-01-22T22:31:18.174Z,67604.97
2023-01-22T22:33:47.904Z,67604.97
2023-01-22T22:36:17.643Z,67604.97
2023-01-22T22:38:46.923Z,67604.97
2023-01-22T22:41:16.821Z,67604.97
2023-01-22T22:43:50.871Z,67604.97
2023-01-22T22:46:20.596Z,67604.97
2023-01-22T22:48:49.875Z,67604.97
2023-01-22T22:51:20.064Z,67604.97
2023-01-22T22:53:49.445Z,67604.97
2023-01-22T22:56:18.694Z,67604.97
2023-01-22T22:58:50.619Z,67604.97
2023-01-22T23:01:20.481Z,67604.97
2023-01-22T23:03:49.828Z,67604.97
2023-01-22T23:06:19.751Z,67604.97
2023-01-22T23:08:52.235Z,67604.97
2023-01-22T23:11:22.003Z,67604.97
2023-01-22T23:13:54.002Z,67604.97
2023-01-22T23:16:24.178Z,67604.97
2023-01-22T23:18:53.889Z,67604.97
2023-01-22T23:21:27.408Z,67604.97
2023-01-22T23:23:56.796Z,67604.97
2023-01-22T23:26:28.204Z,67604.97
2023-01-22T23:29:02.156Z,67604.97
2023-01-22T23:31:31.743Z,67604.97
2023-01-22T23:34:01.379Z,67604.97
2023-01-22T23:36:30.681Z,67604.97
2023-01-22T23:38:59.929Z,67604.97
2023-01-22T23:41:29.182Z,67604.97
2023-01-22T23:44:01.094Z,67604.97
2023-01-22T23:46:31.039Z,67604.97
2023-01-22T23:49:00.546Z,67604.97
2023-01-22T23:51:30.014Z,67604.97
2023-01-22T23:53:59.301Z,67604.97
2023-01-22T23:56:31.546Z,67604.97
2023-01-22T23:59:03.599Z,67604.97
